createdAt,value
2022-10-22T00:02:07.739Z,100631.97
2022-10-22T00:04:51.413Z,100635.22
2022-10-22T00:07:35.408Z,100630.81
2022-10-22T00:10:19.098Z,100629.72
2022-10-22T00:13:02.489Z,100632.09
2022-10-22T00:15:45.919Z,100637.16
2022-10-22T00:18:29.320Z,100628.94
2022-10-22T00:21:12.939Z,100632.19
2022-10-22T00:23:56.894Z,100627.84
2022-10-22T00:26:40.431Z,100622.19
2022-10-22T00:29:23.862Z,100631.88
2022-10-22T00:32:07.295Z,100628.72
2022-10-22T00:34:50.688Z,100622.13
2022-10-22T00:37:34.103Z,100622.72
2022-10-22T00:40:17.569Z,100608.56
2022-10-22T00:43:00.964Z,100604.13
2022-10-22T00:45:45.357Z,100591.19
2022-10-22T00:48:33.704Z,100606.09
2022-10-22T00:51:17.224Z,100603.50
2022-10-22T00:54:08.815Z,100611.44
2022-10-22T00:56:52.190Z,100626.25
2022-10-22T00:59:37.426Z,100625.59
2022-10-22T01:02:20.844Z,100625.13
2022-10-22T01:05:04.885Z,100633.25
2022-10-22T01:07:53.107Z,100646.66
2022-10-22T01:11:04.047Z,100640.09
2022-10-22T01:13:59.464Z,100644.38
2022-10-22T01:17:08.380Z,100644.28
2022-10-22T01:20:29.851Z,100645.72
2022-10-22T01:23:25.070Z,100641.47
2022-10-22T01:26:45.458Z,100616.59
2022-10-22T01:29:51.645Z,100609.41
2022-10-22T01:32:50.700Z,100605.78
2022-10-22T01:35:45.024Z,100601.97
2022-10-22T01:38:30.793Z,100602.03
2022-10-22T01:41:14.374Z,100601.00
2022-10-22T01:43:57.763Z,100613.59
2022-10-22T01:46:41.275Z,100617.25
2022-10-22T01:49:39.832Z,100614.13
2022-10-22T01:53:04.405Z,100611.78
2022-10-22T01:56:09.688Z,100625.31
2022-10-22T01:59:12.127Z,100631.53
2022-10-22T02:02:17.467Z,100623.97
2022-10-22T02:05:22.510Z,100629.59
2022-10-22T02:08:11.333Z,100627.03
2022-10-22T02:10:56.117Z,100634.53
2022-10-22T02:13:49.646Z,100637.28
2022-10-22T02:16:44.330Z,100623.00
2022-10-22T02:19:50.229Z,100636.38
2022-10-22T02:22:34.375Z,100632.59
2022-10-22T02:25:18.043Z,100626.84
2022-10-22T02:28:16.820Z,100621.13
2022-10-22T02:31:15.757Z,100619.47
2022-10-22T02:34:08.853Z,100623.72
2022-10-22T02:36:54.290Z,100623.66
2022-10-22T02:39:39.784Z,100617.38
2022-10-22T02:42:28.285Z,100623.28
2022-10-22T02:45:11.725Z,100616.78
2022-10-22T02:47:55.124Z,100622.50
2022-10-22T02:50:38.470Z,100613.72
2022-10-22T02:53:21.820Z,100629.63
2022-10-22T02:56:05.839Z,100627.09
2022-10-22T02:58:49.229Z,100636.13
2022-10-22T03:01:32.664Z,100631.88
2022-10-22T03:04:16.047Z,100634.91
2022-10-22T03:06:59.652Z,100629.53
2022-10-22T03:09:43.065Z,100632.25
2022-10-22T03:12:26.511Z,100626.06
2022-10-22T03:15:10.359Z,100621.97
2022-10-22T03:17:53.698Z,100623.50
2022-10-22T03:20:37.068Z,100613.56
2022-10-22T03:23:20.553Z,100614.41
2022-10-22T03:26:05.805Z,100613.69
2022-10-22T03:28:49.401Z,100624.75
2022-10-22T03:31:32.811Z,100622.78
2022-10-22T03:34:16.174Z,100626.13
2022-10-22T03:37:02.007Z,100626.91
2022-10-22T03:39:45.546Z,100629.94
2022-10-22T03:42:28.984Z,100631.91
2022-10-22T03:45:12.614Z,100629.16
2022-10-22T03:47:56.010Z,100628.22
2022-10-22T03:50:39.387Z,100631.97
2022-10-22T03:53:22.774Z,100628.34
2022-10-22T03:56:10.453Z,100627.72
2022-10-22T03:58:58.091Z,100634.50
2022-10-22T04:01:41.430Z,100639.06
2022-10-22T04:04:24.825Z,100632.16
2022-10-22T04:07:08.848Z,100639.19
2022-10-22T04:09:52.207Z,100643.56
2022-10-22T04:12:35.549Z,100650.38
2022-10-22T04:15:18.942Z,100665.06
2022-10-22T04:18:02.357Z,100668.34
2022-10-22T04:20:47.009Z,100668.63
2022-10-22T04:23:30.631Z,100668.72
2022-10-22T04:26:14.979Z,100670.31
2022-10-22T04:28:58.337Z,100672.00
2022-10-22T04:31:41.798Z,100671.47
2022-10-22T04:34:28.772Z,100669.50
2022-10-22T04:37:12.773Z,100653.00
2022-10-22T04:39:58.130Z,100656.59
2022-10-22T04:42:41.822Z,100654.75
2022-10-22T04:45:25.182Z,100651.84
2022-10-22T04:48:08.560Z,100651.63
2022-10-22T04:50:52.020Z,100661.03
2022-10-22T04:53:38.174Z,100663.25
2022-10-22T04:56:28.751Z,100668.63
2022-10-22T04:59:15.213Z,100657.75
2022-10-22T05:01:58.576Z,100664.50
2022-10-22T05:04:44.560Z,100664.28
2022-10-22T05:07:27.942Z,100652.28
2022-10-22T05:10:11.283Z,100657.84
2022-10-22T05:12:54.606Z,100665.53
2022-10-22T05:15:37.958Z,100670.03
2022-10-22T05:18:22.649Z,100673.94
2022-10-22T05:21:15.740Z,100668.63
2022-10-22T05:24:00.193Z,100669.78
2022-10-22T05:26:43.550Z,100676.47
2022-10-22T05:29:27.861Z,100675.31
2022-10-22T05:32:11.257Z,100671.09
2022-10-22T05:34:54.597Z,100676.75
2022-10-22T05:37:38.185Z,100669.78
2022-10-22T05:40:30.603Z,100665.03
2022-10-22T05:43:14.624Z,100664.56
2022-10-22T05:46:08.383Z,100673.84
2022-10-22T05:48:59.323Z,100676.06
2022-10-22T05:51:42.777Z,100679.69
2022-10-22T05:54:26.210Z,100682.88
2022-10-22T05:57:09.561Z,100683.19
2022-10-22T05:59:52.919Z,100692.63
2022-10-22T06:02:36.394Z,100695.13
2022-10-22T06:05:19.793Z,100694.28
2022-10-22T06:08:04.410Z,100696.25
2022-10-22T06:10:47.848Z,100694.84
2022-10-22T06:13:32.831Z,100694.81
2022-10-22T06:16:16.243Z,100684.53
2022-10-22T06:19:02.180Z,100691.78
2022-10-22T06:21:46.330Z,100691.56
2022-10-22T06:24:30.041Z,100695.63
2022-10-22T06:27:13.411Z,100709.72
2022-10-22T06:29:56.820Z,100712.44
2022-10-22T06:32:41.455Z,100716.38
2022-10-22T06:35:25.034Z,100722.25
2022-10-22T06:38:08.493Z,100737.06
2022-10-22T06:40:51.864Z,100733.91
2022-10-22T06:43:35.295Z,100741.34
2022-10-22T06:46:21.623Z,100740.50
2022-10-22T06:49:05.874Z,100744.03
2022-10-22T06:51:53.692Z,100739.25
2022-10-22T06:54:37.104Z,100737.78
2022-10-22T06:57:20.432Z,100738.19
2022-10-22T07:00:06.905Z,100743.25
2022-10-22T07:02:56.471Z,100749.50
2022-10-22T07:05:42.644Z,100747.16
2022-10-22T07:08:25.992Z,100749.88
2022-10-22T07:11:17.157Z,100749.19
2022-10-22T07:14:01.031Z,100746.28
2022-10-22T07:16:45.802Z,100753.88
2022-10-22T07:19:29.286Z,100756.47
2022-10-22T07:22:12.688Z,100762.84
2022-10-22T07:24:56.089Z,100763.84
2022-10-22T07:27:39.625Z,100757.88
2022-10-22T07:30:23.221Z,100763.19
2022-10-22T07:33:07.550Z,100769.66
2022-10-22T07:35:50.973Z,100771.00
2022-10-22T07:38:35.621Z,100774.28
2022-10-22T07:41:18.995Z,100779.31
2022-10-22T07:44:02.590Z,100780.84
2022-10-22T07:46:48.817Z,100780.13
2022-10-22T07:49:32.547Z,100785.09
2022-10-22T07:52:15.970Z,100793.84
2022-10-22T07:54:59.413Z,100794.63
2022-10-22T07:57:42.891Z,100807.72
2022-10-22T08:00:26.371Z,100807.38
2022-10-22T08:03:14.577Z,100799.94
2022-10-22T08:05:58.139Z,100811.53
2022-10-22T08:08:43.549Z,100812.03
2022-10-22T08:11:27.057Z,100814.81
2022-10-22T08:14:10.422Z,100815.97
2022-10-22T08:16:53.811Z,100816.41
2022-10-22T08:19:37.703Z,100817.63
2022-10-22T08:22:21.183Z,100819.91
2022-10-22T08:25:06.083Z,100820.44
2022-10-22T08:27:49.469Z,100820.78
2022-10-22T08:30:34.054Z,100827.97
2022-10-22T08:33:17.523Z,100821.75
2022-10-22T08:36:00.971Z,100830.72
2022-10-22T08:38:44.410Z,100831.88
2022-10-22T08:41:27.897Z,100831.94
2022-10-22T08:44:24.955Z,100840.38
2022-10-22T08:47:45.516Z,100846.31
2022-10-22T08:50:51.153Z,100844.28
2022-10-22T08:54:07.167Z,100844.00
2022-10-22T08:57:41.642Z,100845.16
2022-10-22T09:00:40.514Z,100840.91
2022-10-22T09:03:44.969Z,100843.25
2022-10-22T09:06:32.156Z,100846.31
2022-10-22T09:09:18.576Z,100842.94
2022-10-22T09:12:07.319Z,100849.84
2022-10-22T09:14:51.407Z,100849.59
2022-10-22T09:17:54.787Z,100844.72
2022-10-22T09:20:58.262Z,100853.22
2022-10-22T09:24:11.653Z,100857.38
2022-10-22T09:26:57.823Z,100857.13
2022-10-22T09:29:42.162Z,100872.19
2022-10-22T09:32:25.904Z,100865.63
2022-10-22T09:35:13.421Z,100868.16
2022-10-22T09:37:57.265Z,100863.00
2022-10-22T09:40:54.521Z,100872.25
2022-10-22T09:43:38.005Z,100869.44
2022-10-22T09:46:27.045Z,100878.16
2022-10-22T09:49:19.406Z,100877.34
2022-10-22T09:52:03.524Z,100888.47
2022-10-22T09:54:52.566Z,100884.19
2022-10-22T09:57:38.765Z,100892.53
2022-10-22T10:00:26.039Z,100885.34
2022-10-22T10:03:23.617Z,100885.28
2022-10-22T10:06:08.031Z,100890.69
2022-10-22T10:08:51.680Z,100880.19
2022-10-22T10:11:54.055Z,100890.03
2022-10-22T10:15:13.535Z,100885.00
2022-10-22T10:18:26.266Z,100878.47
2022-10-22T10:21:44.806Z,100884.63
2022-10-22T10:24:43.375Z,100885.75
2022-10-22T10:28:13.614Z,100890.84
2022-10-22T10:31:37.513Z,100893.31
2022-10-22T10:34:59.805Z,100893.75
2022-10-22T10:38:04.107Z,100888.31
2022-10-22T10:41:16.080Z,100884.13
2022-10-22T10:44:37.198Z,100889.00
2022-10-22T10:47:56.861Z,100887.81
2022-10-22T10:51:01.405Z,100880.75
2022-10-22T10:54:28.824Z,100877.59
2022-10-22T10:57:44.499Z,100884.59
2022-10-22T11:00:39.592Z,100885.38
2022-10-22T11:04:01.136Z,100889.00
2022-10-22T11:06:46.764Z,100877.38
2022-10-22T11:09:48.250Z,100889.16
2022-10-22T11:12:41.709Z,100890.97
2022-10-22T11:15:37.004Z,100894.56
2022-10-22T11:18:42.088Z,100891.63
2022-10-22T11:21:57.793Z,100886.16
2022-10-22T11:25:00.221Z,100887.00
2022-10-22T11:28:11.658Z,100895.25
2022-10-22T11:31:09.958Z,100891.13
2022-10-22T11:34:34.791Z,100883.94
2022-10-22T11:37:19.660Z,100887.66
2022-10-22T11:40:14.818Z,100882.78
2022-10-22T11:43:05.640Z,100887.41
2022-10-22T11:45:56.995Z,100885.47
2022-10-22T11:48:40.441Z,100893.13
2022-10-22T11:51:39.177Z,100883.47
2022-10-22T11:54:42.876Z,100888.34
2022-10-22T11:57:39.469Z,100888.63
2022-10-22T12:00:46.258Z,100883.69
2022-10-22T12:03:32.612Z,100881.63
2022-10-22T12:06:16.047Z,100889.13
2022-10-22T12:09:06.014Z,100886.34
2022-10-22T12:11:51.697Z,100883.13
2022-10-22T12:14:58.411Z,100882.56
2022-10-22T12:17:43.051Z,100883.38
2022-10-22T12:20:28.185Z,100888.13
2022-10-22T12:23:13.798Z,100892.34
2022-10-22T12:25:57.285Z,100886.09
2022-10-22T12:28:41.065Z,100886.59
2022-10-22T12:31:24.996Z,100880.25
2022-10-22T12:34:23.875Z,100888.28
2022-10-22T12:37:07.638Z,100890.88
2022-10-22T12:39:51.444Z,100887.72
2022-10-22T12:42:35.355Z,100891.59
2022-10-22T12:45:19.344Z,100893.44
2022-10-22T12:48:16.118Z,100883.34
2022-10-22T12:51:02.242Z,100890.75
2022-10-22T12:53:54.786Z,100895.91
2022-10-22T12:56:38.615Z,100887.81
2022-10-22T12:59:37.048Z,100893.16
2022-10-22T13:02:24.535Z,100894.41
2022-10-22T13:05:39.248Z,100891.88
2022-10-22T13:08:29.210Z,100891.53
2022-10-22T13:11:12.766Z,100887.31
2022-10-22T13:14:04.087Z,100897.63
2022-10-22T13:17:15.103Z,100890.84
2022-10-22T13:19:58.465Z,100899.03
2022-10-22T13:23:00.200Z,100899.69
2022-10-22T13:25:44.145Z,100893.31
2022-10-22T13:28:30.631Z,100902.19
2022-10-22T13:31:20.127Z,100900.53
2022-10-22T13:34:11.791Z,100900.72
2022-10-22T13:36:57.479Z,100902.31
2022-10-22T13:39:40.929Z,100897.31
2022-10-22T13:42:24.976Z,100899.00
2022-10-22T13:45:09.167Z,100898.56
2022-10-22T13:47:54.929Z,100894.72
2022-10-22T13:50:39.132Z,100903.63
2022-10-22T13:53:26.517Z,100905.75
2022-10-22T13:56:20.140Z,100907.28
2022-10-22T13:59:03.733Z,100912.91
2022-10-22T14:01:47.216Z,100914.31
2022-10-22T14:04:30.802Z,100916.59
2022-10-22T14:07:17.866Z,100913.94
2022-10-22T14:10:01.456Z,100914.69
2022-10-22T14:12:50.790Z,100921.31
2022-10-22T14:15:38.490Z,100922.38
2022-10-22T14:18:28.695Z,100920.28
2022-10-22T14:21:15.913Z,100926.44
2022-10-22T14:23:59.380Z,100925.94
2022-10-22T14:26:42.829Z,100924.22
2022-10-22T14:29:26.761Z,100921.75
2022-10-22T14:32:21.909Z,100919.81
2022-10-22T14:35:05.694Z,100926.13
2022-10-22T14:37:49.153Z,100927.97
2022-10-22T14:40:32.548Z,100929.75
2022-10-22T14:43:23.806Z,100926.69
2022-10-22T14:46:07.201Z,100934.22
2022-10-22T14:48:50.620Z,100932.72
2022-10-22T14:51:34.036Z,100933.63
2022-10-22T14:54:18.470Z,100943.00
2022-10-22T14:57:05.722Z,100941.88
2022-10-22T14:59:49.167Z,100940.25
2022-10-22T15:02:32.656Z,100939.75
2022-10-22T15:05:17.424Z,100936.50
2022-10-22T15:08:00.825Z,100940.78
2022-10-22T15:10:44.223Z,100953.56
2022-10-22T15:13:29.525Z,100944.53
2022-10-22T15:16:16.454Z,100940.72
2022-10-22T15:19:00.943Z,100949.19
2022-10-22T15:21:44.355Z,100950.03
2022-10-22T15:24:27.702Z,100949.28
2022-10-22T15:27:14.636Z,100957.22
2022-10-22T15:30:00.805Z,100958.03
2022-10-22T15:32:44.317Z,100960.66
2022-10-22T15:35:28.687Z,100967.09
2022-10-22T15:38:12.068Z,100962.50
2022-10-22T15:41:07.462Z,100964.13
2022-10-22T15:43:50.845Z,100965.97
2022-10-22T15:46:35.531Z,100967.03
2022-10-22T15:49:19.157Z,100970.50
2022-10-22T15:52:03.638Z,100975.88
2022-10-22T15:54:47.501Z,100978.47
2022-10-22T15:57:30.879Z,100969.78
2022-10-22T16:00:14.801Z,100969.59
2022-10-22T16:02:58.647Z,100976.28
2022-10-22T16:05:49.365Z,100974.03
2022-10-22T16:08:33.246Z,100976.22
2022-10-22T16:11:16.633Z,100975.78
2022-10-22T16:14:01.315Z,100972.59
2022-10-22T16:16:49.748Z,100977.94
2022-10-22T16:19:33.395Z,100989.75
2022-10-22T16:22:16.825Z,100980.03
2022-10-22T16:25:00.271Z,100996.25
2022-10-22T16:27:43.671Z,100992.03
2022-10-22T16:30:27.111Z,100997.72
2022-10-22T16:33:11.693Z,101001.69
2022-10-22T16:35:55.209Z,101002.19
2022-10-22T16:38:38.695Z,101000.84
2022-10-22T16:41:25.698Z,101000.66
2022-10-22T16:44:10.384Z,101007.78
2022-10-22T16:46:53.772Z,101014.91
2022-10-22T16:49:37.344Z,101007.78
2022-10-22T16:52:20.767Z,101009.06
2022-10-22T16:55:04.924Z,101019.88
2022-10-22T16:57:53.437Z,101020.34
2022-10-22T17:00:37.088Z,101021.09
2022-10-22T17:03:22.563Z,101030.84
2022-10-22T17:06:09.319Z,101033.53
2022-10-22T17:08:53.191Z,101041.09
2022-10-22T17:11:39.189Z,101040.28
2022-10-22T17:14:24.706Z,101047.31
2022-10-22T17:17:08.103Z,101048.09
2022-10-22T17:19:51.492Z,101044.63
2022-10-22T17:22:35.035Z,101057.16
2022-10-22T17:25:36.229Z,101066.56
2022-10-22T17:28:19.588Z,101065.75
2022-10-22T17:31:28.193Z,101065.03
2022-10-22T17:34:16.996Z,101067.81
2022-10-22T17:37:00.430Z,101063.81
2022-10-22T17:39:43.927Z,101073.53
2022-10-22T17:42:28.348Z,101076.03
2022-10-22T17:45:11.784Z,101079.69
2022-10-22T17:47:57.270Z,101080.63
2022-10-22T17:50:43.996Z,101085.69
2022-10-22T17:53:29.161Z,101079.56
2022-10-22T17:56:18.562Z,101081.03
2022-10-22T17:59:02.769Z,101086.59
2022-10-22T18:01:47.726Z,101081.53
2022-10-22T18:04:34.052Z,101079.94
2022-10-22T18:07:17.461Z,101084.72
2022-10-22T18:10:00.850Z,101087.03
2022-10-22T18:12:44.339Z,101081.34
2022-10-22T18:15:27.731Z,101084.41
2022-10-22T18:18:13.520Z,101096.38
2022-10-22T18:20:57.476Z,101082.78
2022-10-22T18:23:40.853Z,101077.09
2022-10-22T18:26:26.852Z,101086.13
2022-10-22T18:29:16.964Z,101085.44
2022-10-22T18:32:00.538Z,101081.84
2022-10-22T18:34:43.961Z,101087.19
2022-10-22T18:37:27.423Z,101083.28
2022-10-22T18:40:14.445Z,101084.44
2022-10-22T18:42:58.078Z,101084.38
2022-10-22T18:45:46.973Z,101085.25
2022-10-22T18:48:30.407Z,101088.34
2022-10-22T18:51:15.585Z,101095.03
2022-10-22T18:54:05.884Z,101089.28
2022-10-22T18:57:03.234Z,101098.88
2022-10-22T18:59:46.791Z,101087.50
2022-10-22T19:02:30.257Z,101086.28
2022-10-22T19:05:13.647Z,101090.53
2022-10-22T19:07:57.141Z,101088.38
2022-10-22T19:10:40.610Z,101098.41
2022-10-22T19:13:25.719Z,101100.97
2022-10-22T19:16:18.378Z,101103.75
2022-10-22T19:19:05.906Z,101096.22
2022-10-22T19:21:49.869Z,101096.56
2022-10-22T19:24:33.491Z,101102.88
2022-10-22T19:27:18.272Z,101111.47
2022-10-22T19:30:02.256Z,101109.75
2022-10-22T19:32:46.369Z,101120.16
2022-10-22T19:35:29.902Z,101121.84
2022-10-22T19:38:13.353Z,101118.94
2022-10-22T19:40:56.911Z,101124.69
2022-10-22T19:43:41.714Z,101127.72
2022-10-22T19:46:28.408Z,101131.44
2022-10-22T19:49:11.798Z,101133.91
2022-10-22T19:51:55.184Z,101134.28
2022-10-22T19:54:40.916Z,101135.97
2022-10-22T19:57:24.326Z,101139.06
2022-10-22T20:00:08.708Z,101136.28
2022-10-22T20:02:53.230Z,101138.31
2022-10-22T20:05:38.894Z,101140.00
2022-10-22T20:08:22.313Z,101146.94
2022-10-22T20:11:08.995Z,101157.44
2022-10-22T20:13:52.883Z,101155.06
2022-10-22T20:16:36.352Z,101168.84
2022-10-22T20:19:19.780Z,101157.84
2022-10-22T20:22:03.297Z,101167.97
2022-10-22T20:24:46.779Z,101159.97
2022-10-22T20:27:30.181Z,101165.50
2022-10-22T20:32:58.242Z,101172.94
2022-10-22T20:35:42.578Z,101181.81
2022-10-22T20:38:26.419Z,101185.03
2022-10-22T20:41:21.477Z,101183.56
2022-10-22T20:44:04.933Z,101180.31
2022-10-22T20:46:48.387Z,101179.25
2022-10-22T20:49:33.093Z,101184.72
2022-10-22T20:52:16.509Z,101191.91
2022-10-22T20:55:00.020Z,101193.13
2022-10-22T20:57:43.759Z,101183.44
2022-10-22T21:00:27.425Z,101189.78
2022-10-22T21:03:11.278Z,101196.19
2022-10-22T21:05:54.743Z,101202.69
2022-10-22T21:08:38.142Z,101202.03
2022-10-22T21:11:23.227Z,101197.09
2022-10-22T21:14:11.180Z,101195.16
2022-10-22T21:16:54.583Z,101211.06
2022-10-22T21:19:38.041Z,101202.81
2022-10-22T21:22:21.487Z,101209.28
2022-10-22T21:25:05.210Z,101209.16
2022-10-22T21:27:48.592Z,101211.69
2022-10-22T21:30:32.574Z,101212.19
2022-10-22T21:33:16.102Z,101215.94
2022-10-22T21:35:59.537Z,101220.22
2022-10-22T21:38:43.218Z,101219.41
2022-10-22T21:41:26.635Z,101222.28
2022-10-22T21:44:10.056Z,101226.28
2022-10-22T21:46:53.483Z,101229.81
2022-10-22T21:49:36.901Z,101232.28
2022-10-22T21:52:20.347Z,101234.69
2022-10-22T21:55:03.988Z,101243.72
2022-10-22T21:57:47.414Z,101249.09
2022-10-22T22:00:30.792Z,101233.31
2022-10-22T22:03:14.200Z,101233.44
2022-10-22T22:06:04.425Z,101237.78
2022-10-22T22:08:48.713Z,101240.31
2022-10-22T22:11:32.601Z,101237.69
2022-10-22T22:14:16.029Z,101233.09
2022-10-22T22:16:59.493Z,101227.13
2022-10-22T22:19:43.015Z,101219.47
2022-10-22T22:22:26.489Z,101224.63
2022-10-22T22:25:10.070Z,101224.25
2022-10-22T22:27:53.442Z,101225.75
2022-10-22T22:30:36.803Z,101227.69
2022-10-22T22:33:20.200Z,101231.41
2022-10-22T22:36:03.628Z,101226.19
2022-10-22T22:38:47.019Z,101225.72
2022-10-22T22:41:30.726Z,101229.25
2022-10-22T22:44:14.820Z,101223.94
2022-10-22T22:46:58.185Z,101226.13
2022-10-22T22:49:41.622Z,101217.56
2022-10-22T22:52:25.010Z,101222.03
2022-10-22T22:55:09.032Z,101231.41
2022-10-22T22:57:52.436Z,101223.66
2022-10-22T23:00:35.834Z,101226.75
2022-10-22T23:03:19.292Z,101225.97
2022-10-22T23:06:02.803Z,101224.94
2022-10-22T23:08:52.070Z,101232.75
2022-10-22T23:11:35.948Z,101226.22
2022-10-22T23:14:20.612Z,101225.91
2022-10-22T23:17:03.977Z,101228.28
2022-10-22T23:19:47.337Z,101226.88
2022-10-22T23:22:30.718Z,101235.25
2022-10-22T23:25:14.174Z,101228.16
2022-10-22T23:27:57.595Z,101235.19
2022-10-22T23:30:44.474Z,101232.88
2022-10-22T23:33:27.939Z,101244.31
2022-10-22T23:36:12.321Z,101239.59
2022-10-22T23:38:55.850Z,101234.22
2022-10-22T23:41:39.414Z,101234.78
2022-10-22T23:44:23.383Z,101234.28
2022-10-22T23:47:06.749Z,101244.38
2022-10-22T23:49:50.118Z,101241.41
2022-10-22T23:52:33.450Z,101242.09
2022-10-22T23:55:16.922Z,101235.75
2022-10-22T23:58:00.295Z,101236.34
